Terminal Aerodrome Forecast
Issued by NWS

Home | Current Version | Previous Version | Graphics & Text | Print | Product List | Glossary On
Versions: 1 2 3 4 5 6 7 8 9 10 11 12 13 14 15 16 17 18 19 20 21 22 23 24 25 26 27 28 29 30
000
FTUS43 KGRB 052300
TAFRHI
TAF
KRHI 052320Z 0600/0624 23004KT P6SM SKC
     FM061000 21009KT P6SM SCT150 BKN200
     FM061600 23012G20KT P6SM SCT040 BKN090
     FM062000 25009KT P6SM BKN015 BKN040=

USA.gov is the U.S. government's official web portal to all federal, state and local government web resources and services.